Time;durP1;ratioP1;P1;durP2;ratioP2;P2;SDS_P1;SDS_P2;PMS_P1;PMS_P2;Temp;Humidity;BMP_temperature;BMP_pressure;BME280_temperature;BME280_humidity;BME280_pressure;Samples;Min_cycle;Max_cycle;Signal;HPM_P1;HPM_P2
2022/08/28 00:00:38;;;;;;;8.20;3.83;;;16.00;98.00;;;;;;5096043;28;20445;-61
2022/08/28 00:03:08;;;;;;;15.03;4.67;;;16.00;98.00;;;;;;5094080;28;20537;-61
2022/08/28 00:05:35;;;;;;;10.67;3.77;;;16.00;98.00;;;;;;5093596;28;20478;-60
2022/08/28 00:08:03;;;;;;;12.03;4.10;;;16.00;98.10;;;;;;5093126;28;20466;-61
2022/08/28 00:10:30;;;;;;;7.90;4.03;;;16.00;98.10;;;;;;5093452;28;20533;-61
2022/08/28 00:12:58;;;;;;;11.60;4.40;;;16.00;98.20;;;;;;5093391;28;20450;-61
2022/08/28 00:15:29;;;;;;;11.03;4.27;;;16.00;98.20;;;;;;5093208;28;20819;-61
2022/08/28 00:17:56;;;;;;;14.17;4.10;;;16.00;98.30;;;;;;5093313;28;20556;-61
2022/08/28 00:20:25;;;;;;;11.17;5.00;;;16.00;98.40;;;;;;5093185;28;20444;-61
2022/08/28 00:22:54;;;;;;;7.73;4.97;;;16.00;98.50;;;;;;5093339;28;20892;-61
2022/08/28 00:25:23;;;;;;;9.00;4.50;;;16.00;98.50;;;;;;5094676;28;20442;-61
2022/08/28 00:27:53;;;;;;;10.40;4.17;;;16.00;98.60;;;;;;5097320;28;20871;-61
2022/08/28 00:30:22;;;;;;;10.10;4.13;;;16.00;98.70;;;;;;5097133;28;20446;-61
2022/08/28 00:32:50;;;;;;;10.07;4.50;;;16.00;98.80;;;;;;5097412;28;20952;-61
2022/08/28 00:35:17;;;;;;;10.43;3.97;;;16.00;98.70;;;;;;5097701;28;20480;-61
2022/08/28 00:37:46;;;;;;;13.03;4.20;;;16.00;98.80;;;;;;5100858;22;20483;-59
2022/08/28 00:40:17;;;;;;;9.00;3.87;;;16.00;98.80;;;;;;5077196;28;20585;-58
2022/08/28 00:42:46;;;;;;;9.40;4.47;;;16.00;98.90;;;;;;5076751;28;20427;-59
2022/08/28 00:45:14;;;;;;;10.37;4.23;;;16.00;99.00;;;;;;5076761;28;20443;-58
2022/08/28 00:47:42;;;;;;;12.07;4.00;;;16.00;99.00;;;;;;5076197;28;20482;-58
2022/08/28 00:50:13;;;;;;;9.80;3.90;;;16.00;99.00;;;;;;5076083;28;20445;-57
2022/08/28 00:52:40;;;;;;;12.97;4.30;;;16.00;99.00;;;;;;5076513;28;20542;-58
2022/08/28 00:55:12;;;;;;;8.03;4.10;;;16.00;99.10;;;;;;5076373;28;20467;-58
2022/08/28 00:57:43;;;;;;;6.90;3.37;;;16.00;99.00;;;;;;5076558;28;20524;-59
2022/08/28 01:00:16;;;;;;;11.63;4.50;;;16.00;99.00;;;;;;5076186;28;20432;-58
2022/08/28 01:02:43;;;;;;;8.40;4.17;;;16.10;99.00;;;;;;5076170;28;20433;-58
2022/08/28 01:05:11;;;;;;;7.97;3.67;;;16.00;99.00;;;;;;5076300;28;20496;-58
2022/08/28 01:07:39;;;;;;;5.67;3.37;;;16.10;99.10;;;;;;5075960;28;20785;-58
2022/08/28 01:10:11;;;;;;;11.17;3.90;;;16.10;99.10;;;;;;5077260;28;20450;-59
2022/08/28 01:12:39;;;;;;;11.47;4.10;;;16.10;99.10;;;;;;5076961;28;20436;-57
2022/08/28 01:15:11;;;;;;;15.53;4.17;;;16.10;99.00;;;;;;5076013;28;21011;-59
2022/08/28 01:17:43;;;;;;;10.13;3.93;;;16.10;99.10;;;;;;5075462;28;20501;-58
2022/08/28 01:20:14;;;;;;;11.60;3.80;;;16.10;99.10;;;;;;5076422;28;20437;-60
2022/08/28 01:22:49;;;;;;;11.87;4.67;;;16.10;99.10;;;;;;5076312;28;20574;-59
2022/08/28 01:25:22;;;;;;;13.10;5.03;;;16.10;99.00;;;;;;5075746;28;20459;-59
2022/08/28 01:27:50;;;;;;;10.40;4.50;;;16.10;99.00;;;;;;5076002;28;20470;-57
2022/08/28 01:30:20;;;;;;;9.63;3.73;;;16.10;99.00;;;;;;5075717;28;20477;-58
2022/08/28 01:32:50;;;;;;;12.27;4.33;;;16.10;99.00;;;;;;5075810;28;20435;-60
2022/08/28 01:35:20;;;;;;;9.53;3.80;;;16.10;99.00;;;;;;5075926;28;20566;-59
2022/08/28 01:37:48;;;;;;;8.00;3.67;;;16.10;99.10;;;;;;5074738;28;20470;-60
2022/08/28 01:40:21;;;;;;;9.07;3.63;;;16.00;99.10;;;;;;5075323;28;20462;-60
2022/08/28 01:42:49;;;;;;;5.50;3.20;;;16.10;99.20;;;;;;5075954;28;20497;-60
2022/08/28 01:45:18;;;;;;;8.60;3.57;;;16.10;99.20;;;;;;5075498;28;20856;-59
2022/08/28 01:47:46;;;;;;;7.90;3.33;;;16.00;99.10;;;;;;5073188;28;20554;-59
2022/08/28 01:50:16;;;;;;;11.43;3.80;;;16.00;99.10;;;;;;5075541;28;20443;-59
2022/08/28 01:52:44;;;;;;;8.93;4.07;;;16.00;99.20;;;;;;5075399;28;20431;-58
2022/08/28 01:55:12;;;;;;;10.33;3.43;;;16.00;99.20;;;;;;5075433;28;20569;-59
2022/08/28 01:57:47;;;;;;;10.40;3.80;;;16.00;99.30;;;;;;5075777;28;20467;-58
2022/08/28 02:00:15;;;;;;;6.13;3.00;;;15.90;99.30;;;;;;5074981;28;20902;-57
2022/08/28 02:02:43;;;;;;;9.60;4.40;;;15.90;99.40;;;;;;5074944;28;20935;-58
2022/08/28 02:05:11;;;;;;;7.93;4.20;;;15.80;99.40;;;;;;5074903;28;20946;-59
2022/08/28 02:07:38;;;;;;;13.33;3.87;;;15.80;99.50;;;;;;5074688;28;20467;-58
2022/08/28 02:10:07;;;;;;;6.80;4.27;;;15.80;99.40;;;;;;5074742;28;20953;-59
2022/08/28 02:12:35;;;;;;;10.50;3.50;;;15.80;99.50;;;;;;5076139;28;20448;-58
2022/08/28 02:15:04;;;;;;;7.53;3.77;;;15.70;99.60;;;;;;5075501;28;20500;-59
2022/08/28 02:17:31;;;;;;;8.80;3.40;;;15.70;99.70;;;;;;5074854;28;20554;-59
2022/08/28 02:19:59;;;;;;;10.20;3.80;;;15.70;99.70;;;;;;5075073;28;20882;-59
2022/08/28 02:22:26;;;;;;;10.83;3.97;;;15.70;99.80;;;;;;5075004;28;20443;-59
2022/08/28 02:24:53;;;;;;;6.60;3.50;;;15.70;99.90;;;;;;5074749;28;20451;-58
2022/08/28 02:27:20;;;;;;;7.97;3.70;;;15.60;99.90;;;;;;5075116;28;20823;-59
2022/08/28 02:29:48;;;;;;;10.93;3.77;;;15.60;99.90;;;;;;5075053;28;20447;-57
2022/08/28 02:32:17;;;;;;;9.53;4.20;;;15.60;99.90;;;;;;5074360;28;20819;-59
2022/08/28 02:34:45;;;;;;;15.10;5.20;;;15.60;99.90;;;;;;5075433;28;20462;-58
2022/08/28 02:37:12;;;;;;;8.00;3.40;;;15.60;99.90;;;;;;5076946;28;20503;-59
2022/08/28 02:39:40;;;;;;;8.67;4.30;;;15.60;99.90;;;;;;5075983;28;20458;-59
2022/08/28 02:42:07;;;;;;;8.17;3.80;;;15.60;99.90;;;;;;5074632;28;20785;-59
2022/08/28 02:44:35;;;;;;;9.70;3.93;;;15.60;99.90;;;;;;5074370;28;20934;-59
2022/08/28 02:47:02;;;;;;;9.77;3.80;;;15.60;99.90;;;;;;5074496;28;20459;-58
2022/08/28 02:49:31;;;;;;;7.10;3.50;;;15.60;99.90;;;;;;5073594;28;20465;-59
2022/08/28 02:51:58;;;;;;;11.13;3.57;;;15.60;99.90;;;;;;5075014;28;20455;-58
2022/08/28 02:54:26;;;;;;;13.20;4.23;;;15.50;99.90;;;;;;5074597;28;20768;-58
2022/08/28 02:56:54;;;;;;;18.90;4.73;;;15.40;99.90;;;;;;5074175;28;20490;-59
2022/08/28 02:59:21;;;;;;;12.47;4.30;;;15.40;99.90;;;;;;5074342;28;20447;-59
2022/08/28 03:01:49;;;;;;;11.17;3.97;;;15.40;99.90;;;;;;5074339;28;20453;-59
2022/08/28 03:04:16;;;;;;;8.10;3.53;;;15.40;99.90;;;;;;5075363;28;20443;-59
2022/08/28 03:06:45;;;;;;;9.10;3.73;;;15.30;99.90;;;;;;5074252;28;20542;-58
2022/08/28 03:09:12;;;;;;;9.37;4.00;;;15.30;99.90;;;;;;5074700;28;20534;-59
2022/08/28 03:11:40;;;;;;;11.47;4.50;;;15.20;99.90;;;;;;5074000;28;21034;-59
2022/08/28 03:14:07;;;;;;;14.27;5.00;;;15.20;99.90;;;;;;5073887;28;20455;-58
2022/08/28 03:16:34;;;;;;;10.47;4.10;;;15.10;99.90;;;;;;5074596;28;20519;-58
2022/08/28 03:19:02;;;;;;;10.70;4.07;;;15.10;99.90;;;;;;5075166;28;20546;-59
2022/08/28 03:21:29;;;;;;;11.23;4.50;;;15.00;99.90;;;;;;5075104;28;20439;-58
2022/08/28 03:23:57;;;;;;;6.60;3.90;;;15.00;99.90;;;;;;5076103;28;20447;-58
2022/08/28 03:26:24;;;;;;;14.67;4.23;;;15.00;99.90;;;;;;5077863;28;20440;-59
2022/08/28 03:28:54;;;;;;;7.90;4.40;;;15.00;99.90;;;;;;5079603;28;20481;-58
2022/08/28 03:31:24;;;;;;;8.70;3.70;;;14.90;99.90;;;;;;5079503;28;20450;-59
2022/08/28 03:33:53;;;;;;;12.93;4.10;;;15.00;99.90;;;;;;5079017;28;20618;-57
2022/08/28 03:36:23;;;;;;;13.70;4.70;;;14.90;99.90;;;;;;5078724;28;20515;-59
2022/08/28 03:38:50;;;;;;;7.13;3.10;;;14.90;99.90;;;;;;5078284;28;20473;-58
2022/08/28 03:41:21;;;;;;;8.83;3.90;;;14.90;99.90;;;;;;5075695;28;20964;-58
2022/08/28 03:43:49;;;;;;;11.80;3.80;;;14.90;99.90;;;;;;5073703;28;20510;-58
2022/08/28 03:46:21;;;;;;;8.53;3.60;;;14.80;99.90;;;;;;5073134;28;20507;-58
2022/08/28 03:48:49;;;;;;;10.27;4.80;;;14.80;99.90;;;;;;5073175;28;20431;-59
2022/08/28 03:51:18;;;;;;;6.90;3.67;;;14.80;99.90;;;;;;5073368;28;20470;-58
2022/08/28 03:53:46;;;;;;;12.83;3.80;;;14.80;99.90;;;;;;5073389;28;20447;-59
2022/08/28 03:56:16;;;;;;;11.40;3.60;;;14.80;99.90;;;;;;5073149;28;20566;-59
2022/08/28 03:58:45;;;;;;;9.90;4.13;;;14.80;99.90;;;;;;5073321;28;20811;-58
2022/08/28 04:01:12;;;;;;;8.03;3.13;;;14.80;99.90;;;;;;5072273;28;20489;-59
2022/08/28 04:03:39;;;;;;;9.13;5.10;;;14.80;99.90;;;;;;5073091;28;20859;-57
2022/08/28 04:06:07;;;;;;;6.57;3.30;;;14.80;99.90;;;;;;5072729;28;20446;-58
2022/08/28 04:10:10;;;;;;;8.13;4.30;;;14.80;99.90;;;;;;5131782;27;20543;-56
2022/08/28 04:12:38;;;;;;;9.90;4.23;;;14.80;99.90;;;;;;5131691;27;20441;-57
2022/08/28 04:15:06;;;;;;;8.43;4.70;;;14.80;99.90;;;;;;5131387;27;20532;-59
2022/08/28 04:17:33;;;;;;;8.87;4.00;;;14.80;99.90;;;;;;5131745;27;20473;-58
2022/08/28 04:20:00;;;;;;;7.50;3.90;;;14.80;99.90;;;;;;5130497;27;20524;-60
2022/08/28 04:22:30;;;;;;;6.53;3.43;;;14.80;99.90;;;;;;5126528;27;20529;-57
2022/08/28 04:24:57;;;;;;;5.90;3.90;;;14.80;99.90;;;;;;5110546;28;20521;-58
2022/08/28 04:27:26;;;;;;;9.40;3.57;;;14.70;99.90;;;;;;5110518;28;20556;-58
2022/08/28 04:29:53;;;;;;;9.90;4.50;;;14.70;99.90;;;;;;5110197;28;20561;-59
2022/08/28 04:32:20;;;;;;;8.53;4.10;;;14.70;99.90;;;;;;5114588;28;20888;-58
2022/08/28 04:34:48;;;;;;;8.50;3.93;;;14.70;99.90;;;;;;5111296;27;21006;-59
2022/08/28 04:37:16;;;;;;;8.80;3.70;;;14.70;99.90;;;;;;5110419;28;21065;-58
2022/08/28 04:39:43;;;;;;;6.63;4.10;;;14.70;99.90;;;;;;5112084;28;20525;-59
2022/08/28 04:42:10;;;;;;;9.10;3.73;;;14.70;99.90;;;;;;5112682;28;21016;-59
2022/08/28 04:44:39;;;;;;;8.27;4.50;;;14.70;99.90;;;;;;5110434;28;20537;-58
2022/08/28 04:47:06;;;;;;;8.20;4.00;;;14.80;99.90;;;;;;5110204;28;20901;-59
2022/08/28 04:49:34;;;;;;;11.33;4.70;;;14.80;99.90;;;;;;5111648;28;20538;-60
2022/08/28 04:52:02;;;;;;;7.93;3.90;;;14.80;99.90;;;;;;5118415;28;20528;-60
2022/08/28 04:54:29;;;;;;;6.70;3.80;;;14.80;99.90;;;;;;5130518;27;20951;-60
2022/08/28 04:56:56;;;;;;;11.27;4.27;;;14.80;99.90;;;;;;5130285;27;20472;-59
2022/08/28 04:59:23;;;;;;;6.30;3.83;;;14.80;99.90;;;;;;5128524;27;20455;-59
2022/08/28 05:01:52;;;;;;;6.00;3.70;;;14.80;99.90;;;;;;5123022;27;20442;-59
2022/08/28 05:04:20;;;;;;;9.23;4.47;;;14.80;99.90;;;;;;5127894;28;20447;-57
2022/08/28 05:06:48;;;;;;;7.33;3.50;;;14.80;99.90;;;;;;5134647;27;20833;-59
2022/08/28 05:09:17;;;;;;;9.63;4.00;;;14.80;99.90;;;;;;5133003;27;20559;-59
2022/08/28 05:11:45;;;;;;;7.00;4.60;;;14.90;99.90;;;;;;5128679;27;21032;-59
2022/08/28 05:14:13;;;;;;;5.77;3.27;;;14.90;99.90;;;;;;5114071;28;20533;-58
2022/08/28 05:16:43;;;;;;;6.83;3.60;;;14.90;99.90;;;;;;5115316;28;20465;-58
2022/08/28 05:19:12;;;;;;;13.10;4.70;;;14.90;99.90;;;;;;5117938;28;20462;-59
2022/08/28 05:21:41;;;;;;;5.90;3.80;;;14.90;99.90;;;;;;5110609;28;20481;-58
2022/08/28 05:24:09;;;;;;;6.90;3.90;;;14.90;99.90;;;;;;5116029;28;20442;-57
2022/08/28 05:26:37;;;;;;;7.37;3.37;;;14.90;99.90;;;;;;5107725;28;21005;-58
2022/08/28 05:29:05;;;;;;;9.70;3.70;;;14.90;99.90;;;;;;5109118;28;20469;-60
2022/08/28 05:31:33;;;;;;;14.63;3.83;;;15.00;99.90;;;;;;5109431;28;21018;-59
2022/08/28 05:34:01;;;;;;;7.23;4.07;;;15.00;99.90;;;;;;5114241;28;20948;-59
2022/08/28 05:36:33;;;;;;;10.50;4.47;;;15.00;99.90;;;;;;5106909;28;20470;-56
2022/08/28 05:39:01;;;;;;;7.97;3.90;;;15.00;99.90;;;;;;5108782;28;20431;-59
2022/08/28 05:41:30;;;;;;;10.40;3.90;;;15.10;99.90;;;;;;5103346;28;20803;-59
2022/08/28 05:43:59;;;;;;;8.40;4.00;;;15.10;99.90;;;;;;5099982;28;20529;-58
2022/08/28 05:46:27;;;;;;;11.30;3.83;;;15.10;99.90;;;;;;5107225;28;20929;-58
2022/08/28 05:48:55;;;;;;;7.10;3.60;;;15.20;99.90;;;;;;5098172;28;20552;-58
2022/08/28 05:51:25;;;;;;;10.43;3.90;;;15.20;99.90;;;;;;5097933;28;20541;-58
2022/08/28 05:53:56;;;;;;;14.87;3.97;;;15.30;99.90;;;;;;5105804;28;20521;-59
2022/08/28 05:56:25;;;;;;;7.67;3.50;;;15.30;99.90;;;;;;5117573;28;20953;-58
2022/08/28 05:58:52;;;;;;;7.20;3.67;;;15.40;99.90;;;;;;5109576;28;20446;-57
2022/08/28 06:01:22;;;;;;;13.20;4.07;;;15.40;99.90;;;;;;5097636;28;20473;-58
2022/08/28 06:03:53;;;;;;;8.43;4.03;;;15.50;99.90;;;;;;5095833;28;20446;-59
2022/08/28 06:06:23;;;;;;;10.03;3.37;;;15.50;99.90;;;;;;5094963;28;20442;-59
2022/08/28 06:08:51;;;;;;;5.33;3.23;;;15.60;99.90;;;;;;5095049;28;20478;-60
2022/08/28 06:11:21;;;;;;;9.03;3.60;;;15.60;99.90;;;;;;5094821;28;20453;-57
2022/08/28 06:13:49;;;;;;;8.63;3.13;;;15.70;99.90;;;;;;5095121;28;20875;-58
2022/08/28 06:16:16;;;;;;;11.47;3.53;;;15.70;99.90;;;;;;5102037;28;20454;-58
2022/08/28 06:18:43;;;;;;;8.10;3.07;;;15.80;99.90;;;;;;5107053;28;20538;-59
2022/08/28 06:21:10;;;;;;;5.77;3.27;;;15.90;99.90;;;;;;5114800;28;20473;-58
2022/08/28 06:23:37;;;;;;;17.33;3.70;;;15.90;99.90;;;;;;5115562;28;20532;-59
2022/08/28 06:26:06;;;;;;;10.03;3.20;;;15.90;99.90;;;;;;5115690;27;20481;-59
2022/08/28 06:28:34;;;;;;;15.40;3.30;;;16.00;99.90;;;;;;5114889;28;20548;-59
2022/08/28 06:31:03;;;;;;;7.40;2.93;;;16.00;99.90;;;;;;5113100;28;20481;-59
2022/08/28 06:33:31;;;;;;;6.43;2.87;;;16.00;99.90;;;;;;5094177;28;20442;-58
2022/08/28 06:35:58;;;;;;;5.77;3.27;;;16.10;99.90;;;;;;5094961;28;20485;-58
2022/08/28 06:38:27;;;;;;;12.67;2.93;;;16.20;99.80;;;;;;5116206;28;21059;-58
2022/08/28 06:40:56;;;;;;;6.00;3.23;;;16.20;99.50;;;;;;5104264;28;20538;-58
2022/08/28 06:43:25;;;;;;;6.93;2.80;;;16.20;99.30;;;;;;5112619;28;20529;-58
2022/08/28 06:45:55;;;;;;;8.40;2.87;;;16.30;99.20;;;;;;5113861;28;20441;-59
2022/08/28 06:48:25;;;;;;;6.50;3.30;;;16.40;98.90;;;;;;5114490;28;20473;-59
2022/08/28 06:50:53;;;;;;;9.67;3.40;;;16.40;98.60;;;;;;5114778;28;20564;-57
2022/08/28 06:53:23;;;;;;;12.83;3.30;;;16.50;98.50;;;;;;5114652;28;20517;-59
2022/08/28 06:55:59;;;;;;;6.20;2.73;;;16.60;98.30;;;;;;5113628;28;20879;-59
2022/08/28 06:58:27;;;;;;;13.53;3.53;;;16.60;97.90;;;;;;5114639;28;20540;-58
2022/08/28 07:01:04;;;;;;;5.43;2.90;;;16.70;97.50;;;;;;5108992;28;20458;-59
2022/08/28 07:03:32;;;;;;;8.40;2.63;;;16.80;97.40;;;;;;5100099;28;20512;-59
2022/08/28 07:06:00;;;;;;;9.00;3.63;;;16.90;97.20;;;;;;5114196;28;20533;-58
2022/08/28 07:08:29;;;;;;;9.53;2.60;;;17.00;97.00;;;;;;5115240;28;20928;-58
2022/08/28 07:10:56;;;;;;;4.40;2.93;;;17.10;96.70;;;;;;5114472;28;20477;-60
2022/08/28 07:13:24;;;;;;;3.67;2.63;;;17.30;96.20;;;;;;5114546;28;20448;-60
2022/08/28 07:15:51;;;;;;;7.83;2.97;;;17.40;95.80;;;;;;5114100;28;20484;-57
2022/08/28 07:18:20;;;;;;;9.00;3.03;;;17.50;95.50;;;;;;5114150;28;20560;-58
2022/08/28 07:20:56;;;;;;;8.27;3.33;;;17.60;95.00;;;;;;5114366;28;20516;-59
2022/08/28 07:23:23;;;;;;;6.30;2.50;;;17.70;94.60;;;;;;5114196;28;20907;-60
2022/08/28 07:25:51;;;;;;;9.93;3.73;;;17.70;94.10;;;;;;5116431;28;20445;-59
2022/08/28 07:28:18;;;;;;;8.97;2.77;;;17.70;94.00;;;;;;5132987;28;20441;-59
2022/08/28 07:30:45;;;;;;;6.63;3.40;;;17.80;93.70;;;;;;5132175;28;20477;-60
2022/08/28 07:33:13;;;;;;;10.73;2.70;;;17.90;93.50;;;;;;5117706;28;20563;-59
2022/08/28 07:35:45;;;;;;;9.20;3.07;;;17.90;93.00;;;;;;5113654;28;20481;-59
2022/08/28 07:38:12;;;;;;;5.87;2.90;;;18.00;92.70;;;;;;5114003;28;21070;-59
2022/08/28 07:40:39;;;;;;;7.83;2.60;;;18.00;92.50;;;;;;5113470;28;20951;-58
2022/08/28 07:45:58;;;;;;;7.83;3.33;;;17.90;92.20;;;;;;5113602;28;20401;-60
2022/08/28 07:48:25;;;;;;;9.00;3.37;;;17.80;92.30;;;;;;5113687;28;20548;-59
2022/08/28 07:50:54;;;;;;;3.97;2.20;;;17.80;92.50;;;;;;5113304;28;20509;-59
2022/08/28 07:53:21;;;;;;;6.67;3.10;;;17.80;92.50;;;;;;5113567;28;20536;-59
2022/08/28 07:55:50;;;;;;;9.87;3.20;;;17.90;92.50;;;;;;5113855;28;20536;-59
2022/08/28 07:58:17;;;;;;;6.07;2.80;;;18.00;92.30;;;;;;5113227;28;20833;-58
2022/08/28 08:00:45;;;;;;;6.77;2.77;;;18.10;92.00;;;;;;5113305;28;20821;-59
2022/08/28 08:03:12;;;;;;;5.90;2.93;;;18.30;91.70;;;;;;5113755;28;20441;-59
2022/08/28 08:05:40;;;;;;;10.07;2.80;;;18.50;91.00;;;;;;5114220;28;20468;-59
2022/08/28 08:08:08;;;;;;;6.00;2.10;;;18.90;90.30;;;;;;5113719;28;20481;-59
2022/08/28 08:10:35;;;;;;;8.13;2.43;;;19.20;88.70;;;;;;5113982;28;20465;-61
2022/08/28 08:13:03;;;;;;;5.00;1.93;;;19.30;85.60;;;;;;5113821;28;20446;-60
2022/08/28 08:15:34;;;;;;;10.67;2.90;;;19.30;82.20;;;;;;5113531;28;20449;-60
2022/08/28 08:18:01;;;;;;;9.23;2.47;;;19.20;81.20;;;;;;5113652;28;20468;-59
2022/08/28 08:20:29;;;;;;;11.60;2.60;;;19.30;80.40;;;;;;5113747;28;20441;-58
2022/08/28 08:22:56;;;;;;;7.30;2.93;;;19.40;78.50;;;;;;5113585;28;20536;-57
2022/08/28 08:25:25;;;;;;;5.33;2.83;;;19.40;77.50;;;;;;5114053;28;20475;-59
2022/08/28 08:27:52;;;;;;;10.53;2.80;;;19.40;75.90;;;;;;5113685;28;20564;-59
2022/08/28 08:30:20;;;;;;;6.47;2.40;;;19.20;74.40;;;;;;5114111;28;20481;-58
2022/08/28 08:32:47;;;;;;;7.57;2.30;;;19.20;74.50;;;;;;5117062;28;20506;-58
2022/08/28 08:35:16;;;;;;;10.00;2.13;;;19.30;74.00;;;;;;5117825;28;20537;-60
2022/08/28 08:37:43;;;;;;;9.30;2.50;;;19.60;72.40;;;;;;5117598;28;20463;-59
2022/08/28 08:40:17;;;;;;;5.53;2.10;;;19.80;70.30;;;;;;5118668;28;20433;-59
2022/08/28 08:42:49;;;;;;;5.80;2.10;;;19.90;69.80;;;;;;5117544;28;20516;-60
2022/08/28 08:45:22;;;;;;;3.40;2.60;;;20.00;69.40;;;;;;5117433;28;20436;-58
2022/08/28 08:47:52;;;;;;;6.10;2.77;;;20.20;67.90;;;;;;5115862;28;20487;-59
2022/08/28 08:50:22;;;;;;;8.53;2.23;;;20.00;66.70;;;;;;5114167;28;20567;-59
2022/08/28 08:53:04;;;;;;;8.53;2.00;;;19.80;66.90;;;;;;5113179;28;20517;-59
2022/08/28 08:55:35;;;;;;;8.00;2.53;;;19.80;66.40;;;;;;5114309;28;20942;-59
2022/08/28 08:58:07;;;;;;;7.90;2.10;;;19.90;65.80;;;;;;5117295;28;20548;-59
2022/08/28 09:00:41;;;;;;;5.97;2.53;;;20.20;65.10;;;;;;5117099;28;20462;-59
2022/08/28 09:03:13;;;;;;;8.10;2.70;;;20.30;64.50;;;;;;5118101;28;20482;-59
2022/08/28 09:05:49;;;;;;;8.60;2.00;;;20.30;63.50;;;;;;5117538;28;20433;-60
2022/08/28 09:08:27;;;;;;;5.40;2.17;;;20.10;63.40;;;;;;5116424;28;20563;-59
2022/08/28 09:11:01;;;;;;;6.90;2.23;;;20.00;63.50;;;;;;5116739;28;20544;-60
2022/08/28 09:13:36;;;;;;;7.10;2.43;;;20.10;63.40;;;;;;5116877;28;20425;-60
2022/08/28 09:16:16;;;;;;;7.30;2.13;;;20.40;61.70;;;;;;5116717;28;20426;-59
2022/08/28 09:18:44;;;;;;;8.30;1.97;;;20.50;60.80;;;;;;5116581;28;20976;-59
2022/08/28 09:21:11;;;;;;;3.13;1.90;;;20.70;60.30;;;;;;5116421;28;20532;-58
2022/08/28 09:23:38;;;;;;;4.03;2.37;;;20.90;59.70;;;;;;5116620;28;20503;-58
2022/08/28 09:26:10;;;;;;;6.00;2.30;;;21.10;59.00;;;;;;5116613;28;20620;-59
2022/08/28 09:28:41;;;;;;;3.20;2.00;;;21.00;58.60;;;;;;5116488;28;20465;-60
2022/08/28 09:31:12;;;;;;;4.23;2.30;;;20.70;58.80;;;;;;5116565;28;20557;-59
2022/08/28 09:33:43;;;;;;;5.40;2.67;;;20.60;59.30;;;;;;5120293;28;20429;-59
2022/08/28 09:36:35;;;;;;;4.70;2.10;;;20.90;59.00;;;;;;5117874;28;20457;-59
2022/08/28 09:39:07;;;;;;;8.97;2.47;;;21.30;58.40;;;;;;5102650;28;20451;-60
2022/08/28 09:44:24;;;;;;;3.93;2.20;;;21.20;56.90;;;;;;5117532;28;20398;-59
2022/08/28 09:46:52;;;;;;;5.70;2.47;;;21.00;57.30;;;;;;5117073;28;20453;-59
2022/08/28 09:49:26;;;;;;;5.60;2.30;;;21.00;57.80;;;;;;5116221;28;20453;-58
2022/08/28 09:51:54;;;;;;;5.67;2.63;;;21.10;57.60;;;;;;5119021;28;20456;-59
2022/08/28 09:54:27;;;;;;;4.53;2.37;;;21.10;57.50;;;;;;5117009;28;20973;-58
2022/08/28 09:56:55;;;;;;;8.70;2.97;;;21.30;57.50;;;;;;5116777;27;20468;-58
2022/08/28 09:59:26;;;;;;;7.17;2.00;;;21.40;56.70;;;;;;5117069;28;20526;-59
2022/08/28 10:02:21;;;;;;;7.57;2.60;;;21.50;56.40;;;;;;5116392;28;20450;-59
2022/08/28 10:05:03;;;;;;;5.67;2.43;;;21.40;55.90;;;;;;5121498;28;20438;-59
2022/08/28 10:07:38;;;;;;;3.83;2.17;;;21.20;56.20;;;;;;5119943;27;20548;-60
2022/08/28 10:10:21;;;;;;;5.50;2.20;;;21.00;56.50;;;;;;5117329;28;20506;-58
2022/08/28 10:13:00;;;;;;;6.53;2.83;;;20.90;56.70;;;;;;5118886;28;20430;-59
2022/08/28 10:15:36;;;;;;;6.50;2.20;;;21.10;56.50;;;;;;5118005;28;20442;-58
2022/08/28 10:18:21;;;;;;;4.67;1.90;;;21.40;55.80;;;;;;5115783;28;20495;-58
2022/08/28 10:21:00;;;;;;;5.83;2.20;;;21.60;55.20;;;;;;5116458;28;20460;-60
2022/08/28 10:23:43;;;;;;;4.50;2.20;;;21.70;54.00;;;;;;5116306;28;20545;-60
2022/08/28 10:26:25;;;;;;;5.77;2.80;;;21.50;53.00;;;;;;5117023;28;20989;-59
2022/08/28 10:29:06;;;;;;;4.90;2.07;;;21.40;53.50;;;;;;5115911;28;20460;-59
2022/08/28 10:31:46;;;;;;;4.43;2.07;;;21.40;53.80;;;;;;5116155;28;20555;-59
2022/08/28 10:34:39;;;;;;;7.17;2.70;;;21.50;54.10;;;;;;5116139;28;20961;-59
2022/08/28 10:37:21;;;;;;;5.73;2.60;;;21.70;54.00;;;;;;5115930;28;20554;-58
2022/08/28 10:39:56;;;;;;;4.43;2.20;;;21.70;54.30;;;;;;5115182;28;20513;-59
2022/08/28 10:42:30;;;;;;;7.67;2.00;;;21.70;53.50;;;;;;5115142;28;20459;-59
2022/08/28 10:45:04;;;;;;;4.03;2.00;;;21.70;53.10;;;;;;5115735;28;20492;-59
2022/08/28 10:47:36;;;;;;;4.90;1.77;;;21.80;52.90;;;;;;5116474;28;20462;-59
2022/08/28 10:50:11;;;;;;;7.90;2.40;;;21.90;52.90;;;;;;5116683;28;20488;-60
2022/08/28 10:52:45;;;;;;;3.73;2.10;;;22.10;52.80;;;;;;5116141;28;20458;-60
2022/08/28 10:55:19;;;;;;;5.27;2.53;;;22.20;52.60;;;;;;5117460;28;20458;-60
2022/08/28 10:57:52;;;;;;;5.33;2.30;;;22.10;51.90;;;;;;5116645;28;20467;-59
2022/08/28 11:00:21;;;;;;;6.40;2.30;;;22.00;52.00;;;;;;5117156;28;20433;-58
2022/08/28 11:02:53;;;;;;;3.70;1.73;;;22.00;52.50;;;;;;5115509;27;20497;-59
2022/08/28 11:05:22;;;;;;;3.50;1.87;;;22.10;52.10;;;;;;5114938;28;20524;-59
2022/08/28 11:07:51;;;;;;;5.87;1.97;;;22.20;51.50;;;;;;5114764;28;20522;-59
2022/08/28 11:10:23;;;;;;;3.53;2.00;;;22.30;51.50;;;;;;5115189;28;20471;-59
2022/08/28 11:12:52;;;;;;;5.53;1.80;;;22.30;51.20;;;;;;5114996;28;20512;-59
2022/08/28 11:15:45;;;;;;;4.90;2.37;;;22.30;50.80;;;;;;5114621;28;20952;-60
2022/08/28 11:18:48;;;;;;;5.30;2.53;;;22.30;50.60;;;;;;5115220;28;20552;-59
2022/08/28 11:21:25;;;;;;;4.53;2.00;;;22.30;50.50;;;;;;5113834;28;20470;-59
2022/08/28 11:24:00;;;;;;;5.43;2.13;;;22.30;50.40;;;;;;5117345;28;20423;-58
2022/08/28 11:26:33;;;;;;;4.87;2.23;;;22.30;50.60;;;;;;5116529;28;20480;-58
2022/08/28 11:29:02;;;;;;;4.30;2.53;;;22.30;50.50;;;;;;5116019;28;20863;-57
2022/08/28 11:31:36;;;;;;;5.57;2.53;;;22.40;50.70;;;;;;5115317;28;20479;-58
2022/08/28 11:34:04;;;;;;;6.37;2.43;;;22.40;50.60;;;;;;5115766;28;20460;-59
2022/08/28 11:37:02;;;;;;;3.60;2.10;;;22.40;50.40;;;;;;5115514;28;20493;-59
2022/08/28 11:39:30;;;;;;;3.43;2.30;;;22.40;50.10;;;;;;5115101;28;20448;-60
2022/08/28 11:42:35;;;;;;;5.63;2.90;;;22.30;49.40;;;;;;5115228;28;20443;-60
2022/08/28 11:45:02;;;;;;;2.53;2.00;;;22.30;49.30;;;;;;5115824;28;20526;-59
2022/08/28 11:47:46;;;;;;;4.87;2.20;;;22.60;49.10;;;;;;5115540;28;20517;-58
2022/08/28 11:50:29;;;;;;;5.73;2.10;;;23.20;48.50;;;;;;5115682;28;20516;-59
2022/08/28 11:53:44;;;;;;;6.50;2.80;;;23.80;47.70;;;;;;5116529;28;20515;-59
2022/08/28 11:56:46;;;;;;;4.83;2.17;;;24.20;46.80;;;;;;5115950;28;20430;-59
2022/08/28 11:59:35;;;;;;;4.47;1.97;;;24.00;46.70;;;;;;5115893;28;20451;-58
2022/08/28 12:02:46;;;;;;;3.20;1.90;;;24.10;45.60;;;;;;5114904;28;20452;-58
2022/08/28 12:05:46;;;;;;;3.27;1.87;;;24.40;45.00;;;;;;5052089;28;20446;-60
2022/08/28 12:08:53;;;;;;;3.90;2.30;;;24.80;43.70;;;;;;5114761;28;20527;-58
2022/08/28 12:12:00;;;;;;;6.10;2.10;;;24.90;43.30;;;;;;5117416;28;20479;-59
2022/08/28 12:15:02;;;;;;;3.90;1.73;;;25.10;43.10;;;;;;5115722;28;20440;-59
2022/08/28 12:17:49;;;;;;;5.23;1.73;;;25.20;42.80;;;;;;5115136;28;20563;-60
2022/08/28 12:20:24;;;;;;;5.80;2.30;;;24.90;43.10;;;;;;5113865;28;20958;-59
2022/08/28 12:22:53;;;;;;;4.13;1.93;;;24.70;43.00;;;;;;5114309;28;20424;-59
2022/08/28 12:25:29;;;;;;;4.50;2.00;;;24.40;43.20;;;;;;5113806;28;20521;-59
2022/08/28 12:28:00;;;;;;;3.17;1.50;;;24.10;43.60;;;;;;5114361;28;20866;-59
2022/08/28 12:30:30;;;;;;;4.63;1.87;;;23.80;43.80;;;;;;5115745;28;20778;-58
2022/08/28 12:33:02;;;;;;;3.67;2.00;;;23.60;44.40;;;;;;5118132;28;20455;-59
2022/08/28 12:35:30;;;;;;;4.50;2.20;;;23.60;44.70;;;;;;5118612;28;20751;-60
2022/08/28 12:38:03;;;;;;;5.03;2.07;;;23.40;44.60;;;;;;5117924;27;20608;-59
2022/08/28 12:40:48;;;;;;;5.60;1.93;;;23.40;44.60;;;;;;5119094;28;20908;-59
2022/08/28 12:43:24;;;;;;;2.13;1.83;;;23.30;44.50;;;;;;5118315;28;20547;-60
2022/08/28 12:45:54;;;;;;;2.80;1.70;;;23.20;44.20;;;;;;5118339;28;20439;-60
2022/08/28 12:48:24;;;;;;;3.93;1.47;;;23.20;43.90;;;;;;5118072;28;20468;-60
2022/08/28 12:50:59;;;;;;;4.67;1.73;;;23.20;43.90;;;;;;5118685;28;20475;-61
2022/08/28 12:53:27;;;;;;;3.03;1.70;;;23.20;44.10;;;;;;5118270;28;20489;-59
2022/08/28 12:55:55;;;;;;;4.73;2.50;;;23.30;44.30;;;;;;5117131;28;20472;-59
2022/08/28 12:58:32;;;;;;;4.00;1.80;;;23.40;44.50;;;;;;5117535;28;20485;-59
2022/08/28 13:01:03;;;;;;;5.30;2.30;;;23.50;44.00;;;;;;5118316;28;20421;-59
2022/08/28 13:03:32;;;;;;;4.00;1.90;;;23.50;43.60;;;;;;5117697;28;20425;-60
2022/08/28 13:06:04;;;;;;;4.03;2.00;;;23.50;43.40;;;;;;5127683;28;20501;-59
2022/08/28 13:08:33;;;;;;;4.40;2.40;;;23.50;43.20;;;;;;5123629;28;20476;-59
2022/08/28 13:11:01;;;;;;;3.10;1.97;;;23.40;43.50;;;;;;5119605;28;20516;-59
2022/08/28 13:13:34;;;;;;;4.50;1.93;;;23.40;43.90;;;;;;5118071;28;20476;-62